PWSweather.com
Personal Weather Stations
Station Observations
KAZPHOEN90
RayThunderhill, Phoenix, AZ

RayThunderhillPhoenix, AZ

Lat: 33.312, Lon: -112.029

Elevation: 1260

Station Type: Davis Vantage VUE

Latest ConditionsUpdated 9:15:01 AM MST Thursday, Mar 23, 2017
Currently Today's Max Today's Min Today's Average
Temperature 59.7°F15.4°C 62.3°F16.8°C 53.4°F11.9°C 56.6°F13.7°C
Dew Point 46.6°F8.1°C 49.3°F9.6°C 44.4°F6.9°C 47.3°F8.5°C
Winds Calm Calm 4.5 mph NW7.2 kmh NW - 0.5 mph 0.8 kmh
Wind Gusts 1.0 mph1.6 kmh 8.0 mph12.9 kmh - -
Humidity 62% 82% 52% 72%
Pressure 29.89 in1012.2 mb 29.89 in1012.2 mb 29.78 in1008.5 mb -
Precipitation - 0.07 in1.8 mm - -
Hour Temp Dew Point Humidity Winds Wind Gusts Pressure Precip Precip Rate Daily Precip Total
09:15 AM 59.7°F15.4°C 46.6°F8.1°C 62% Calm Calm 1.0 mph1.6 kmh 29.89 in1012.2 mb - 0.00 in0.0 mm 0.07 in1.8 mm
09:00 AM 57.6°F14.2°C 47.5°F8.6°C 69% Calm Calm -- 29.88 in1011.9 mb - 0.00 in0.0 mm 0.07 in1.8 mm
08:45 AM 57.2°F14.0°C 49.3°F9.6°C 75% 1.0 mph SE1.6 kmh SE 2.0 mph3.2 kmh 29.88 in1011.9 mb - 0.00 in0.0 mm 0.07 in1.8 mm
08:30 AM 56.6°F13.7°C 48.8°F9.3°C 75% 1.2 mph SE1.9 kmh SE 4.0 mph6.4 kmh 29.88 in1011.9 mb - 0.00 in0.0 mm 0.07 in1.8 mm
08:15 AM 57.2°F14.0°C 49.3°F9.6°C 75% Calm Calm -- 29.87 in1011.5 mb - 0.00 in0.0 mm 0.07 in1.8 mm
08:00 AM 54.3°F12.4°C 48.6°F9.2°C 81% Calm Calm -- 29.86 in1011.2 mb - 0.00 in0.0 mm 0.07 in1.8 mm
07:45 AM 53.6°F12.0°C 47.9°F8.8°C 81% Calm Calm -- 29.86 in1011.2 mb - 0.00 in0.0 mm 0.07 in1.8 mm
07:30 AM 53.4°F11.9°C 48.0°F8.9°C 82% Calm Calm -- 29.86 in1011.2 mb - 0.00 in0.0 mm 0.07 in1.8 mm
07:15 AM 53.7°F12.1°C 48.0°F8.9°C 81% Calm Calm -- 29.86 in1011.2 mb - 0.00 in0.0 mm 0.07 in1.8 mm
07:00 AM 53.7°F12.1°C 48.0°F8.9°C 81% 0.2 mph S0.3 kmh S 2.0 mph3.2 kmh 29.85 in1010.8 mb - 0.00 in0.0 mm 0.07 in1.8 mm
06:45 AM 53.7°F12.1°C 48.0°F8.9°C 81% Calm Calm -- 29.84 in1010.5 mb - 0.00 in0.0 mm 0.07 in1.8 mm
06:30 AM 53.7°F12.1°C 48.0°F8.9°C 81% Calm Calm -- 29.84 in1010.5 mb - 0.00 in0.0 mm 0.07 in1.8 mm
06:15 AM 53.7°F12.1°C 47.7°F8.7°C 80% Calm Calm -- 29.83 in1010.2 mb - 0.00 in0.0 mm 0.07 in1.8 mm
06:00 AM 53.7°F12.1°C 47.7°F8.7°C 80% Calm Calm -- 29.83 in1010.2 mb - 0.00 in0.0 mm 0.07 in1.8 mm
05:45 AM 53.9°F12.2°C 48.2°F9.0°C 81% Calm Calm -- 29.80 in1009.1 mb - 0.00 in0.0 mm 0.07 in1.8 mm
05:30 AM 54.3°F12.4°C 49.0°F9.4°C 82% Calm Calm -- 29.78 in1008.5 mb - 0.00 in0.0 mm 0.07 in1.8 mm
05:15 AM 54.3°F12.4°C 48.6°F9.2°C 81% 0.3 mph NNW0.5 kmh NNW -- 29.78 in1008.5 mb - 0.00 in0.0 mm 0.07 in1.8 mm
05:00 AM 54.8°F12.7°C 48.4°F9.1°C 79% 0.2 mph NE0.3 kmh NE 1.0 mph1.6 kmh 29.79 in1008.8 mb - 0.00 in0.0 mm 0.07 in1.8 mm
04:45 AM 55.3°F12.9°C 47.5°F8.6°C 75% 0.8 mph NW1.3 kmh NW 2.0 mph3.2 kmh 29.79 in1008.8 mb - 0.00 in0.0 mm 0.07 in1.8 mm
04:30 AM 55.2°F12.9°C 47.1°F8.4°C 74% Calm Calm -- 29.81 in1009.5 mb - 0.00 in0.0 mm 0.07 in1.8 mm
04:15 AM 54.8°F12.7°C 47.0°F8.3°C 75% Calm Calm -- 29.80 in1009.1 mb - 0.00 in0.0 mm 0.07 in1.8 mm
04:00 AM 54.7°F12.6°C 47.3°F8.5°C 76% Calm Calm -- 29.79 in1008.8 mb - 0.00 in0.0 mm 0.07 in1.8 mm
03:45 AM 54.5°F12.5°C 46.7°F8.2°C 75% Calm Calm 1.0 mph1.6 kmh 29.79 in1008.8 mb - 0.00 in0.0 mm 0.07 in1.8 mm
03:30 AM 54.4°F12.4°C 48.3°F9.1°C 80% 0.4 mph NW0.6 kmh NW 2.0 mph3.2 kmh 29.79 in1008.8 mb - 0.01 in0.3 mm 0.07 in1.8 mm
03:15 AM 54.4°F12.4°C 48.3°F9.1°C 80% Calm Calm -- 29.81 in1009.5 mb - 0.01 in0.3 mm 0.06 in1.5 mm
03:00 AM 54.4°F12.4°C 48.4°F9.1°C 80% 1.2 mph NW1.9 kmh NW 2.0 mph3.2 kmh 29.80 in1009.1 mb - 0.05 in1.3 mm 0.05 in1.3 mm
02:45 AM 57.1°F13.9°C 47.4°F8.6°C 70% 4.5 mph NW7.2 kmh NW 6.0 mph9.7 kmh 29.81 in1009.5 mb - 0.01 in0.3 mm 0.01 in0.3 mm
02:30 AM 58.2°F14.6°C 46.5°F8.1°C 65% 4.3 mph WNW6.9 kmh WNW 8.0 mph12.9 kmh 29.79 in1008.8 mb - 0.00 in0.0 mm 0.00 in0.0 mm
02:15 AM 59.1°F15.1°C 46.5°F8.1°C 63% 2.4 mph WNW3.9 kmh WNW 5.0 mph8.0 kmh 29.80 in1009.1 mb - 0.00 in0.0 mm 0.00 in0.0 mm
02:00 AM 60.3°F15.7°C 47.2°F8.4°C 62% 0.1 mph W0.2 kmh W -- 29.79 in1008.8 mb - 0.00 in0.0 mm 0.00 in0.0 mm
01:45 AM 61.1°F16.2°C 46.6°F8.1°C 59% 2.0 mph NW3.2 kmh NW 3.0 mph4.8 kmh 29.82 in1009.8 mb - 0.00 in0.0 mm 0.00 in0.0 mm
01:30 AM 62.3°F16.8°C 44.4°F6.9°C 52% 0.8 mph NW1.3 kmh NW 3.0 mph4.8 kmh 29.80 in1009.1 mb - 0.00 in0.0 mm 0.00 in0.0 mm
01:15 AM 62.0°F16.7°C 44.7°F7.1°C 53% Calm Calm -- 29.80 in1009.1 mb - 0.00 in0.0 mm 0.00 in0.0 mm
01:00 AM 61.4°F16.3°C 45.1°F7.3°C 55% Calm Calm -- 29.80 in1009.1 mb - 0.00 in0.0 mm 0.00 in0.0 mm
12:45 AM 61.0°F16.1°C 45.2°F7.3°C 56% Calm Calm -- 29.79 in1008.8 mb - 0.00 in0.0 mm 0.00 in0.0 mm
12:30 AM 60.7°F15.9°C 45.4°F7.4°C 57% Calm Calm -- 29.80 in1009.1 mb - 0.00 in0.0 mm 0.00 in0.0 mm
12:15 AM 60.3°F15.7°C 45.5°F7.5°C 58% Calm Calm -- 29.78 in1008.5 mb - 0.00 in0.0 mm 0.00 in0.0 mm
12:00 AM 60.0°F15.6°C 45.2°F7.3°C 58% Calm Calm -- 29.78 in1008.5 mb - 0.00 in0.0 mm 0.00 in0.0 mm